createdAt,value
2023-01-26T00:01:35.813Z,19.27
2023-01-26T00:04:03.331Z,20.87
2023-01-26T00:06:30.721Z,19.47
2023-01-26T00:08:57.981Z,17.90
2023-01-26T00:11:27.556Z,17.67
2023-01-26T00:13:57.266Z,17.53
2023-01-26T00:16:25.303Z,19.63
2023-01-26T00:18:53.813Z,15.53
2023-01-26T00:21:23.006Z,18.07
2023-01-26T00:23:51.824Z,18.90
2023-01-26T00:26:22.103Z,18.90
2023-01-26T00:28:50.011Z,17.03
2023-01-26T00:31:22.429Z,17.30
2023-01-26T00:33:50.563Z,16.40
2023-01-26T00:36:18.529Z,18.20
2023-01-26T00:38:46.207Z,15.50
2023-01-26T00:41:33.849Z,19.20
2023-01-26T00:44:01.666Z,16.93
2023-01-26T00:46:29.263Z,16.87
2023-01-26T00:48:56.546Z,16.30
2023-01-26T00:51:23.900Z,14.63
2023-01-26T00:53:51.197Z,18.57
2023-01-26T00:56:19.597Z,15.70
2023-01-26T00:58:46.921Z,17.17
2023-01-26T01:01:14.494Z,20.00
2023-01-26T01:03:43.157Z,18.93
2023-01-26T01:06:10.578Z,18.30
2023-01-26T01:08:38.046Z,16.40
2023-01-26T01:11:10.859Z,17.30
2023-01-26T01:13:39.174Z,20.37
2023-01-26T01:16:12.653Z,17.83
2023-01-26T01:18:40.841Z,16.20
2023-01-26T01:21:12.283Z,15.63
2023-01-26T01:23:40.041Z,15.90
2023-01-26T01:26:08.852Z,19.43
2023-01-26T01:28:36.893Z,17.10
2023-01-26T01:31:06.088Z,19.27
2023-01-26T01:33:33.685Z,17.37
2023-01-26T01:36:07.104Z,18.87
2023-01-26T01:38:34.793Z,16.50
2023-01-26T01:41:03.920Z,17.30
2023-01-26T01:43:31.328Z,19.50
2023-01-26T01:46:01.796Z,16.10
2023-01-26T01:48:50.351Z,16.20
2023-01-26T01:51:32.979Z,16.63
2023-01-26T01:54:05.624Z,14.80
2023-01-26T01:56:35.299Z,20.27
2023-01-26T01:59:04.493Z,16.83
2023-01-26T02:01:31.775Z,21.43
2023-01-26T02:04:04.248Z,16.30
2023-01-26T02:06:37.596Z,16.83
2023-01-26T02:09:06.794Z,17.20
2023-01-26T02:11:40.145Z,17.20
2023-01-26T02:14:11.441Z,19.70
2023-01-26T02:16:39.990Z,16.50
2023-01-26T02:19:26.653Z,18.63
2023-01-26T02:21:59.939Z,17.83
2023-01-26T02:24:32.175Z,17.20
2023-01-26T02:26:59.957Z,19.63
2023-01-26T02:29:27.302Z,17.23
2023-01-26T02:31:55.573Z,17.30
2023-01-26T02:34:28.724Z,18.13
2023-01-26T02:36:58.539Z,16.77
2023-01-26T02:39:45.399Z,20.43
2023-01-26T02:42:32.132Z,14.43
2023-01-26T02:45:00.606Z,18.57
2023-01-26T02:47:28.737Z,14.73
2023-01-26T02:49:58.174Z,17.60
2023-01-26T02:52:27.870Z,18.50
2023-01-26T02:55:18.229Z,17.23
2023-01-26T02:57:46.482Z,18.67
2023-01-26T03:00:17.736Z,19.93
2023-01-26T03:02:46.624Z,16.47
2023-01-26T03:05:14.199Z,18.90
2023-01-26T03:07:41.857Z,18.73
2023-01-26T03:10:10.513Z,16.70
2023-01-26T03:12:38.272Z,16.77
2023-01-26T03:15:25.431Z,25.47
2023-01-26T03:18:20.367Z,18.63
2023-01-26T03:21:09.464Z,19.73
2023-01-26T03:23:55.962Z,21.13
2023-01-26T03:26:43.861Z,21.37
2023-01-26T03:29:11.444Z,18.00
2023-01-26T03:31:41.020Z,19.70
2023-01-26T03:34:08.292Z,18.57
2023-01-26T03:36:37.300Z,20.30
2023-01-26T03:39:09.018Z,20.07
2023-01-26T03:41:54.749Z,18.87
2023-01-26T03:44:41.197Z,23.90
2023-01-26T03:47:28.149Z,17.77
2023-01-26T03:50:14.079Z,19.33
2023-01-26T03:53:00.102Z,20.60
2023-01-26T03:55:46.037Z,21.00
2023-01-26T03:58:13.544Z,18.53
2023-01-26T04:00:41.014Z,19.70
2023-01-26T04:03:27.021Z,20.70
2023-01-26T04:06:17.504Z,18.77
2023-01-26T04:08:48.622Z,19.70
2023-01-26T04:11:16.613Z,19.80
2023-01-26T04:14:02.980Z,18.57
2023-01-26T04:16:51.792Z,18.17
2023-01-26T04:19:37.637Z,18.00
2023-01-26T04:22:05.090Z,19.13
2023-01-26T04:24:34.790Z,19.87
2023-01-26T04:27:02.108Z,17.87
2023-01-26T04:29:35.865Z,16.80
2023-01-26T04:32:03.568Z,18.10
2023-01-26T04:34:32.861Z,19.70
2023-01-26T04:37:01.611Z,22.73
2023-01-26T04:39:41.033Z,17.43
2023-01-26T04:42:08.673Z,16.53
2023-01-26T04:44:36.001Z,18.47
2023-01-26T04:47:05.007Z,18.80
2023-01-26T04:49:33.541Z,19.43
2023-01-26T04:52:00.943Z,19.40
2023-01-26T04:54:29.416Z,19.37
2023-01-26T04:56:56.877Z,19.87
2023-01-26T04:59:24.636Z,20.13
2023-01-26T05:01:56.033Z,18.37
2023-01-26T05:04:23.450Z,18.63
2023-01-26T05:06:51.141Z,17.07
2023-01-26T05:09:18.575Z,20.70
2023-01-26T05:11:49.315Z,19.90
2023-01-26T05:14:42.667Z,18.33
2023-01-26T05:17:19.673Z,18.10
2023-01-26T05:19:47.089Z,18.70
2023-01-26T05:22:33.174Z,17.73
2023-01-26T05:25:19.726Z,18.37
2023-01-26T05:27:53.737Z,17.60
2023-01-26T05:30:21.509Z,20.50
2023-01-26T05:32:50.577Z,20.20
2023-01-26T05:35:18.376Z,16.90
2023-01-26T05:37:46.483Z,17.80
2023-01-26T05:40:15.341Z,19.70
2023-01-26T05:42:43.858Z,19.93
2023-01-26T05:45:30.003Z,17.70
2023-01-26T05:48:01.233Z,18.10
2023-01-26T05:50:30.136Z,18.40
2023-01-26T05:53:16.168Z,21.00
2023-01-26T05:55:44.144Z,19.63
2023-01-26T05:58:12.129Z,23.20
2023-01-26T06:00:40.312Z,19.57
2023-01-26T06:03:13.432Z,21.97
2023-01-26T06:05:40.936Z,18.60
2023-01-26T06:08:15.613Z,17.70
2023-01-26T06:11:01.679Z,20.80
2023-01-26T06:13:42.197Z,20.73
2023-01-26T06:16:19.169Z,19.87
2023-01-26T06:18:50.127Z,16.77
2023-01-26T06:21:18.543Z,20.57
2023-01-26T06:23:46.099Z,15.33
2023-01-26T06:26:15.201Z,18.13
2023-01-26T06:28:43.087Z,22.13
2023-01-26T06:31:14.148Z,20.13
2023-01-26T06:33:42.799Z,20.33
2023-01-26T06:36:14.128Z,18.77
2023-01-26T06:38:47.843Z,21.50
2023-01-26T06:41:16.344Z,18.30
2023-01-26T06:43:47.150Z,22.50
2023-01-26T06:46:16.198Z,19.07
2023-01-26T06:48:45.292Z,18.10
2023-01-26T06:51:15.736Z,21.47
2023-01-26T06:53:56.841Z,21.93
2023-01-26T06:56:40.030Z,19.87
2023-01-26T06:59:21.568Z,19.83
2023-01-26T07:01:51.924Z,17.87
2023-01-26T07:04:19.473Z,22.70
2023-01-26T07:06:46.876Z,20.70
2023-01-26T07:09:14.283Z,19.83
2023-01-26T07:11:41.739Z,21.47
2023-01-26T07:14:09.282Z,18.50
2023-01-26T07:16:36.624Z,18.00
2023-01-26T07:19:04.077Z,26.07
2023-01-26T07:21:31.594Z,18.43
2023-01-26T07:23:59.094Z,16.47
2023-01-26T07:26:26.368Z,17.97
2023-01-26T07:28:53.876Z,19.23
2023-01-26T07:31:21.464Z,19.53
2023-01-26T07:33:49.026Z,25.70
2023-01-26T07:36:16.477Z,23.37
2023-01-26T07:38:43.903Z,19.90
2023-01-26T07:41:12.880Z,19.10
2023-01-26T07:43:41.878Z,18.60
2023-01-26T07:46:12.797Z,18.43
2023-01-26T07:48:40.755Z,21.60
2023-01-26T07:51:09.322Z,17.93
2023-01-26T07:53:42.270Z,19.10
2023-01-26T07:56:16.035Z,27.97
2023-01-26T07:58:43.477Z,28.40
2023-01-26T08:01:13.397Z,23.43
2023-01-26T08:03:41.469Z,18.80
2023-01-26T08:06:11.755Z,18.90
2023-01-26T08:08:41.302Z,17.60
2023-01-26T08:11:09.383Z,27.00
2023-01-26T08:13:37.395Z,16.83
2023-01-26T08:16:10.643Z,18.80
2023-01-26T08:18:39.358Z,18.37
2023-01-26T08:21:06.844Z,15.80
2023-01-26T08:23:34.552Z,16.03
2023-01-26T08:26:07.074Z,21.40
2023-01-26T08:28:35.112Z,21.73
2023-01-26T08:31:05.986Z,20.20
2023-01-26T08:33:34.320Z,23.20
2023-01-26T08:36:03.621Z,20.97
2023-01-26T08:38:32.430Z,21.07
2023-01-26T08:41:00.959Z,23.53
2023-01-26T08:43:28.649Z,18.93
2023-01-26T08:45:56.090Z,21.73
2023-01-26T08:48:23.556Z,16.97
2023-01-26T08:50:59.648Z,20.50
2023-01-26T08:53:30.176Z,22.37
2023-01-26T08:55:57.641Z,20.03
2023-01-26T08:58:25.067Z,18.83
2023-01-26T09:00:52.623Z,23.73
2023-01-26T09:03:20.104Z,21.87
2023-01-26T09:05:47.777Z,18.23
2023-01-26T09:08:15.350Z,18.70
2023-01-26T09:10:45.143Z,15.37
2023-01-26T09:13:12.759Z,14.67
2023-01-26T09:15:40.197Z,15.77
2023-01-26T09:18:07.585Z,24.20
2023-01-26T09:20:35.080Z,29.60
2023-01-26T09:23:02.434Z,18.33
2023-01-26T09:25:30.252Z,14.57
2023-01-26T09:27:57.769Z,14.90
2023-01-26T09:30:25.225Z,17.63
2023-01-26T09:32:53.301Z,17.87
2023-01-26T09:35:20.667Z,18.13
2023-01-26T09:37:48.684Z,21.83
2023-01-26T09:40:39.825Z,20.00
2023-01-26T09:43:41.566Z,16.30
2023-01-26T09:46:43.192Z,17.70
2023-01-26T09:49:17.380Z,15.83
2023-01-26T09:51:55.726Z,16.47
2023-01-26T09:54:39.257Z,18.63
2023-01-26T09:57:15.596Z,21.33
2023-01-26T10:00:13.094Z,33.77
2023-01-26T10:02:55.094Z,22.30
2023-01-26T10:05:36.345Z,24.33
2023-01-26T10:08:14.796Z,18.40
2023-01-26T10:10:48.153Z,19.97
2023-01-26T10:13:18.327Z,21.50
2023-01-26T10:15:51.973Z,15.20
2023-01-26T10:18:27.965Z,15.97
2023-01-26T10:20:58.195Z,17.90
2023-01-26T10:23:30.364Z,15.27
2023-01-26T10:26:19.539Z,17.07
2023-01-26T10:28:50.325Z,19.10
2023-01-26T10:31:23.808Z,18.63
2023-01-26T10:34:18.139Z,15.23
2023-01-26T10:36:46.665Z,16.40
2023-01-26T10:39:16.951Z,18.03
2023-01-26T10:41:59.045Z,17.27
2023-01-26T10:44:33.738Z,21.33
2023-01-26T10:47:19.739Z,18.07
2023-01-26T10:49:47.760Z,17.73
2023-01-26T10:52:19.499Z,18.80
2023-01-26T10:54:47.284Z,18.90
2023-01-26T10:57:32.505Z,22.30
2023-01-26T11:00:09.658Z,21.50
2023-01-26T11:02:37.454Z,20.90
2023-01-26T11:05:10.222Z,18.30
2023-01-26T11:07:43.455Z,16.20
2023-01-26T11:10:31.959Z,16.83
2023-01-26T11:13:17.729Z,15.63
2023-01-26T11:15:48.438Z,19.77
2023-01-26T11:18:22.638Z,15.67
2023-01-26T11:20:59.861Z,19.37
2023-01-26T11:23:52.917Z,18.17
2023-01-26T11:26:41.773Z,14.87
2023-01-26T11:29:33.961Z,19.23
2023-01-26T11:32:42.689Z,17.67
2023-01-26T11:35:30.378Z,18.60
2023-01-26T11:38:27.463Z,18.77
2023-01-26T11:41:00.663Z,20.97
2023-01-26T11:43:52.649Z,21.40
2023-01-26T11:46:41.332Z,19.23
2023-01-26T11:49:28.369Z,18.47
2023-01-26T11:52:04.106Z,19.83
2023-01-26T11:54:57.813Z,18.47
2023-01-26T11:57:48.698Z,24.50
2023-01-26T12:00:31.740Z,21.53
2023-01-26T12:03:04.831Z,20.13
2023-01-26T12:05:43.393Z,21.30
2023-01-26T12:08:38.565Z,21.03
2023-01-26T12:11:23.096Z,23.87
2023-01-26T12:13:58.593Z,22.10
2023-01-26T12:17:17.568Z,20.07
2023-01-26T12:19:52.969Z,21.20
2023-01-26T12:22:39.909Z,23.20
2023-01-26T12:25:38.246Z,22.73
2023-01-26T12:28:22.763Z,22.83
2023-01-26T12:30:57.677Z,20.70
2023-01-26T12:33:26.048Z,23.87
2023-01-26T12:36:20.997Z,21.20
2023-01-26T12:39:00.217Z,22.03
2023-01-26T12:41:30.458Z,25.53
2023-01-26T12:44:10.533Z,27.97
2023-01-26T12:46:44.902Z,20.87
2023-01-26T12:49:23.670Z,17.37
2023-01-26T12:51:59.536Z,19.43
2023-01-26T12:55:01.543Z,19.93
2023-01-26T12:57:42.848Z,21.63
2023-01-26T13:00:22.982Z,22.93
2023-01-26T13:02:55.741Z,22.07
2023-01-26T13:05:26.085Z,24.67
2023-01-26T13:07:53.475Z,26.33
2023-01-26T13:10:24.338Z,25.47
2023-01-26T13:13:21.053Z,31.67
2023-01-26T13:16:17.427Z,19.17
2023-01-26T13:18:48.895Z,25.47
2023-01-26T13:21:36.565Z,26.97
2023-01-26T13:24:24.036Z,24.27
2023-01-26T13:26:59.139Z,24.30
2023-01-26T13:29:33.268Z,25.97
2023-01-26T13:32:23.754Z,26.17
2023-01-26T13:35:00.264Z,31.13
2023-01-26T13:37:44.998Z,29.90
2023-01-26T13:40:31.094Z,25.17
2023-01-26T13:43:26.381Z,27.40
2023-01-26T13:46:05.955Z,25.07
2023-01-26T13:48:35.839Z,26.93
2023-01-26T13:51:04.082Z,26.43
2023-01-26T13:53:44.709Z,26.93
2023-01-26T13:56:23.900Z,25.07
2023-01-26T13:58:52.172Z,24.33
2023-01-26T14:01:20.574Z,23.63
2023-01-26T14:03:48.518Z,22.40
2023-01-26T14:06:22.542Z,28.80
2023-01-26T14:08:54.484Z,26.50
2023-01-26T14:11:24.722Z,24.80
2023-01-26T14:13:59.005Z,26.53
2023-01-26T14:16:33.297Z,26.53
2023-01-26T14:19:22.434Z,24.57
2023-01-26T14:21:55.668Z,28.80
2023-01-26T14:24:34.578Z,28.57
2023-01-26T14:27:02.458Z,31.13
2023-01-26T14:29:36.783Z,25.40
2023-01-26T14:32:05.585Z,25.67
2023-01-26T14:34:33.072Z,29.90
2023-01-26T14:37:06.423Z,24.20
2023-01-26T14:39:34.177Z,23.53
2023-01-26T14:42:02.369Z,26.03
2023-01-26T14:44:30.029Z,27.77
2023-01-26T14:47:01.354Z,29.47
2023-01-26T14:49:47.641Z,25.67
2023-01-26T14:52:25.642Z,28.53
2023-01-26T14:54:55.481Z,29.17
2023-01-26T14:57:27.395Z,27.37
2023-01-26T15:00:00.794Z,24.03
2023-01-26T15:02:37.878Z,24.63
2023-01-26T15:05:11.712Z,32.03
2023-01-26T15:07:48.786Z,31.90
2023-01-26T15:10:41.171Z,25.93
2023-01-26T15:13:22.600Z,27.40
2023-01-26T15:16:11.824Z,22.10
2023-01-26T15:18:39.243Z,27.17
2023-01-26T15:21:14.423Z,26.63
2023-01-26T15:23:43.961Z,22.33
2023-01-26T15:26:32.062Z,26.07
2023-01-26T15:29:02.185Z,24.70
2023-01-26T15:31:33.618Z,28.87
2023-01-26T15:34:01.705Z,26.70
2023-01-26T15:36:32.275Z,28.77
2023-01-26T15:39:15.933Z,24.93
2023-01-26T15:42:01.618Z,25.07
2023-01-26T15:44:29.449Z,24.63
2023-01-26T15:46:57.745Z,22.33
2023-01-26T15:49:25.107Z,23.20
2023-01-26T15:51:54.070Z,24.63
2023-01-26T15:54:21.467Z,24.33
2023-01-26T15:56:48.669Z,22.10
2023-01-26T15:59:15.913Z,21.20
2023-01-26T16:01:43.553Z,19.67
2023-01-26T16:04:13.935Z,19.63
2023-01-26T16:06:41.506Z,20.77
2023-01-26T16:09:08.981Z,23.17
2023-01-26T16:11:41.813Z,20.43
2023-01-26T16:14:13.200Z,25.83
2023-01-26T16:16:40.759Z,29.83
2023-01-26T16:19:08.821Z,20.83
2023-01-26T16:21:41.002Z,20.53
2023-01-26T16:24:10.500Z,20.30
2023-01-26T16:26:38.095Z,23.30
2023-01-26T16:29:05.500Z,34.03
2023-01-26T16:31:36.288Z,25.10
2023-01-26T16:34:04.359Z,26.70
2023-01-26T16:36:31.693Z,23.53
2023-01-26T16:38:59.217Z,23.13
2023-01-26T16:41:28.956Z,23.37
2023-01-26T16:44:00.582Z,22.70
2023-01-26T16:46:29.605Z,22.03
2023-01-26T16:48:57.305Z,24.80
2023-01-26T16:51:28.757Z,21.33
2023-01-26T16:53:56.219Z,19.03
2023-01-26T16:56:24.612Z,20.33
2023-01-26T16:58:52.106Z,19.20
2023-01-26T17:01:22.851Z,20.00
2023-01-26T17:03:51.049Z,21.10
2023-01-26T17:06:19.342Z,21.80
2023-01-26T17:08:47.234Z,25.80
2023-01-26T17:11:25.518Z,20.00
2023-01-26T17:13:56.016Z,22.20
2023-01-26T17:16:25.973Z,25.87
2023-01-26T17:18:53.480Z,19.87
2023-01-26T17:21:21.733Z,23.07
2023-01-26T17:23:58.641Z,22.23
2023-01-26T17:26:26.175Z,27.23
2023-01-26T17:28:55.406Z,26.43
2023-01-26T17:31:24.002Z,27.37
2023-01-26T17:33:52.026Z,26.17
2023-01-26T17:36:20.235Z,23.53
2023-01-26T17:38:48.776Z,29.60
2023-01-26T17:41:17.007Z,23.97
2023-01-26T17:43:45.049Z,27.60
2023-01-26T17:46:14.658Z,22.93
2023-01-26T17:48:45.095Z,27.60
2023-01-26T17:51:16.596Z,27.50
2023-01-26T17:53:46.143Z,26.63
2023-01-26T17:56:15.713Z,24.43
2023-01-26T17:58:46.658Z,27.90
2023-01-26T18:01:14.060Z,29.37
2023-01-26T18:03:42.487Z,29.63
2023-01-26T18:06:10.671Z,28.53
2023-01-26T18:08:39.194Z,30.70
2023-01-26T18:11:09.949Z,29.57
2023-01-26T18:13:37.792Z,27.60
2023-01-26T18:16:06.697Z,25.03
2023-01-26T18:18:34.598Z,31.33
2023-01-26T18:21:12.201Z,28.87
2023-01-26T18:23:39.599Z,25.60
2023-01-26T18:26:07.852Z,30.93
2023-01-26T18:28:35.206Z,30.70
2023-01-26T18:31:35.680Z,24.60
2023-01-26T18:34:04.406Z,26.33
2023-01-26T18:36:32.516Z,26.73
2023-01-26T18:39:05.743Z,24.83
2023-01-26T18:41:33.632Z,26.97
2023-01-26T18:44:03.160Z,22.43
2023-01-26T18:46:33.524Z,26.30
2023-01-26T18:49:01.471Z,24.73
2023-01-26T18:51:30.791Z,24.37
2023-01-26T18:53:58.289Z,24.33
2023-01-26T18:56:26.274Z,23.67
2023-01-26T18:58:54.323Z,24.13
2023-01-26T19:01:22.496Z,22.63
2023-01-26T19:03:54.109Z,22.53
2023-01-26T19:06:23.846Z,19.73
2023-01-26T19:09:01.267Z,21.17
2023-01-26T19:11:31.672Z,18.43
2023-01-26T19:14:00.220Z,23.13
2023-01-26T19:16:28.881Z,19.17
2023-01-26T19:18:56.829Z,16.83
2023-01-26T19:21:25.749Z,22.73
2023-01-26T19:23:55.814Z,21.20
2023-01-26T19:26:27.747Z,15.97
2023-01-26T19:28:55.717Z,19.40
2023-01-26T19:31:24.362Z,15.70
2023-01-26T19:33:59.822Z,19.60
2023-01-26T19:36:29.276Z,16.87
2023-01-26T19:38:57.117Z,19.63
2023-01-26T19:41:25.352Z,15.53
2023-01-26T19:43:53.058Z,18.27
2023-01-26T19:46:21.079Z,17.23
2023-01-26T19:48:48.941Z,18.70
2023-01-26T19:51:18.925Z,18.40
2023-01-26T19:53:49.342Z,18.83
2023-01-26T19:56:20.625Z,18.97
2023-01-26T19:58:54.164Z,19.40
2023-01-26T20:01:22.293Z,21.57
2023-01-26T20:03:51.549Z,19.30
2023-01-26T20:06:21.179Z,18.53
2023-01-26T20:08:49.079Z,20.83
2023-01-26T20:11:17.620Z,21.17
2023-01-26T20:13:45.198Z,21.73
2023-01-26T20:16:13.773Z,15.50
2023-01-26T20:18:41.393Z,18.57
2023-01-26T20:21:08.856Z,21.70
2023-01-26T20:23:36.624Z,16.57
2023-01-26T20:26:06.609Z,14.53
2023-01-26T20:28:34.625Z,16.33
2023-01-26T20:31:12.365Z,16.10
2023-01-26T20:33:39.896Z,15.30
2023-01-26T20:36:12.753Z,17.13
2023-01-26T20:38:40.259Z,16.37
2023-01-26T20:41:14.425Z,18.43
2023-01-26T20:43:58.102Z,19.03
2023-01-26T20:46:32.732Z,20.47
2023-01-26T20:49:00.403Z,13.80
2023-01-26T20:51:33.492Z,15.80
2023-01-26T20:54:02.427Z,17.33
2023-01-26T20:56:30.859Z,15.73
2023-01-26T20:58:58.348Z,16.80
2023-01-26T21:01:26.558Z,15.70
2023-01-26T21:03:54.614Z,14.10
2023-01-26T21:06:24.085Z,13.60
2023-01-26T21:08:54.885Z,12.90
2023-01-26T21:11:25.484Z,14.17
2023-01-26T21:13:55.582Z,12.77
2023-01-26T21:16:24.355Z,11.87
2023-01-26T21:18:52.214Z,13.93
2023-01-26T21:21:21.698Z,13.77
2023-01-26T21:23:49.616Z,16.87
2023-01-26T21:26:23.231Z,13.53
2023-01-26T21:28:52.712Z,12.87
2023-01-26T21:31:22.931Z,13.90
2023-01-26T21:33:51.456Z,13.23
2023-01-26T21:36:21.910Z,14.80
2023-01-26T21:38:51.941Z,14.67
2023-01-26T21:41:40.404Z,13.37
2023-01-26T21:44:13.563Z,13.13
2023-01-26T21:46:41.453Z,12.63
2023-01-26T21:49:10.264Z,13.17
2023-01-26T21:51:56.550Z,13.47
2023-01-26T21:54:23.901Z,11.27
2023-01-26T21:56:51.394Z,13.43
2023-01-26T21:59:19.464Z,11.70
2023-01-26T22:01:52.184Z,14.87
2023-01-26T22:04:25.639Z,14.00
2023-01-26T22:06:52.977Z,10.83
2023-01-26T22:09:21.337Z,12.33
2023-01-26T22:11:50.582Z,9.90
2023-01-26T22:14:20.854Z,11.40
2023-01-26T22:16:48.788Z,13.00
2023-01-26T22:19:16.448Z,12.77
2023-01-26T22:21:44.548Z,10.53
2023-01-26T22:24:14.493Z,11.30
2023-01-26T22:26:42.157Z,12.20
2023-01-26T22:29:11.294Z,11.63
2023-01-26T22:31:39.271Z,11.97
2023-01-26T22:34:06.861Z,11.97
2023-01-26T22:36:34.199Z,11.53
2023-01-26T22:39:01.669Z,13.20
2023-01-26T22:41:30.498Z,9.37
2023-01-26T22:43:59.473Z,12.27
2023-01-26T22:46:28.530Z,11.10
2023-01-26T22:48:57.390Z,10.67
2023-01-26T22:51:28.049Z,12.40
2023-01-26T22:53:57.249Z,11.93
2023-01-26T22:56:25.617Z,10.97
2023-01-26T22:58:58.497Z,12.07
2023-01-26T23:01:29.113Z,10.37
2023-01-26T23:03:57.374Z,13.83
2023-01-26T23:06:25.918Z,15.23
2023-01-26T23:08:53.837Z,14.37
2023-01-26T23:11:26.539Z,11.33
2023-01-26T23:13:55.369Z,9.53
2023-01-26T23:16:24.509Z,10.47
2023-01-26T23:18:53.851Z,11.87
2023-01-26T23:21:21.723Z,12.43
2023-01-26T23:23:49.415Z,14.30
2023-01-26T23:26:17.148Z,12.33
2023-01-26T23:28:44.855Z,11.53
2023-01-26T23:31:14.040Z,11.97
2023-01-26T23:33:41.862Z,12.07
2023-01-26T23:36:11.473Z,14.57
2023-01-26T23:38:39.154Z,12.83
2023-01-26T23:41:08.609Z,11.87
2023-01-26T23:43:36.507Z,10.27
2023-01-26T23:46:05.991Z,9.57
2023-01-26T23:48:33.701Z,10.23
2023-01-26T23:51:07.390Z,14.37
2023-01-26T23:53:34.932Z,10.33
2023-01-26T23:56:12.637Z,12.90
2023-01-26T23:58:39.890Z,11.80
